Time;durP1;ratioP1;P1;durP2;ratioP2;P2;SDS_P1;SDS_P2;PMS_P1;PMS_P2;Temp;Humidity;BMP_temperature;BMP_pressure;BME280_temperature;BME280_humidity;BME280_pressure;Samples;Min_cycle;Max_cycle;Signal;HPM_P1;HPM_P2
2022/02/12 00:00:49;;;;;;;;;;;19.40;55.10;;;;;;5074118;28;1196;-66
2022/02/12 00:03:14;;;;;;;;;;;19.40;55.10;;;;;;5045783;28;1953;-65
2022/02/12 00:05:40;;;;;;;;;;;19.40;55.20;;;;;;5074490;28;1054;-68
2022/02/12 00:08:05;;;;;;;;;;;19.40;55.20;;;;;;5074078;28;995;-67
2022/02/12 00:10:31;;;;;;;;;;;19.40;55.20;;;;;;5073359;28;1819;-68
2022/02/12 00:12:56;;;;;;;;;;;19.40;55.30;;;;;;5055461;28;1146;-67
2022/02/12 00:15:22;;;;;;;;;;;19.40;55.30;;;;;;5055768;28;1059;-67
2022/02/12 00:17:47;;;;;;;;;;;19.40;55.40;;;;;;5055677;28;1187;-68
2022/02/12 00:20:13;;;;;;;;;;;19.30;55.30;;;;;;5091523;22;2003;-72
2022/02/12 00:22:39;;;;;;;;;;;19.30;55.40;;;;;;5038774;28;1973;-72
2022/02/12 00:25:05;;;;;;;;;;;19.30;55.40;;;;;;5054333;28;1145;-72
2022/02/12 00:27:30;;;;;;;;;;;19.30;55.40;;;;;;5053742;28;1087;-72
2022/02/12 00:29:56;;;;;;;;;;;19.30;55.50;;;;;;5051561;28;1232;-72
2022/02/12 00:32:21;;;;;;;;;;;19.30;55.50;;;;;;5052102;28;1115;-72
2022/02/12 00:34:47;;;;;;;;;;;19.30;55.50;;;;;;5053523;28;1106;-73
2022/02/12 00:37:12;;;;;;;;;;;19.30;56.20;;;;;;5053340;28;1440;-72
2022/02/12 00:39:39;;;;;;;;;;;19.30;55.60;;;;;;5052988;28;1067;-73
2022/02/12 00:42:05;;;;;;;;;;;19.30;55.60;;;;;;5053128;28;1324;-72
2022/02/12 00:44:30;;;;;;;;;;;19.30;55.70;;;;;;5051934;28;1906;-72
2022/02/12 00:46:56;;;;;;;;;;;19.30;55.70;;;;;;5051758;28;1135;-72
2022/02/12 00:49:21;;;;;;;;;;;19.30;55.70;;;;;;5052925;28;1268;-72
2022/02/12 00:51:46;;;;;;;;;;;19.30;55.70;;;;;;5051718;28;1358;-71
2022/02/12 00:54:12;;;;;;;;;;;19.30;55.80;;;;;;5052993;28;1102;-72
2022/02/12 00:56:37;;;;;;;;;;;19.20;55.80;;;;;;5053028;28;1421;-71
2022/02/12 00:59:03;;;;;;;;;;;19.20;55.80;;;;;;5052777;28;1055;-72
2022/02/12 01:01:28;;;;;;;;;;;19.20;55.80;;;;;;5051593;28;1362;-72
2022/02/12 01:03:54;;;;;;;;;;;19.20;55.90;;;;;;5051608;28;1902;-72
2022/02/12 01:06:19;;;;;;;;;;;19.20;55.90;;;;;;5051636;28;1075;-72
2022/02/12 01:08:45;;;;;;;;;;;19.20;55.90;;;;;;5051299;28;1343;-72
2022/02/12 01:11:13;;;;;;;;;;;19.20;55.90;;;;;;5051588;28;1383;-72
2022/02/12 01:13:38;;;;;;;;;;;19.20;55.90;;;;;;5051577;28;1301;-72
2022/02/12 01:16:04;;;;;;;;;;;19.20;56.00;;;;;;5051520;28;1383;-72
2022/02/12 01:18:29;;;;;;;;;;;19.20;56.00;;;;;;5052578;28;1040;-72
2022/02/12 01:20:55;;;;;;;;;;;19.20;56.00;;;;;;5052661;28;1349;-72
2022/02/12 01:23:20;;;;;;;;;;;19.20;56.00;;;;;;5052544;28;1913;-72
2022/02/12 01:25:48;;;;;;;;;;;19.20;56.10;;;;;;5055995;28;1305;-72
2022/02/12 01:28:15;;;;;;;;;;;19.20;56.10;;;;;;5056754;28;1059;-72
2022/02/12 01:30:40;;;;;;;;;;;19.10;56.00;;;;;;5038655;28;1300;-72
2022/02/12 01:33:06;;;;;;;;;;;19.10;56.10;;;;;;5056828;28;1021;-72
2022/02/12 01:35:31;;;;;;;;;;;19.10;56.10;;;;;;5056637;28;965;-72
2022/02/12 01:37:56;;;;;;;;;;;19.10;56.10;;;;;;5055552;28;1073;-72
2022/02/12 01:40:24;;;;;;;;;;;19.10;56.10;;;;;;5056346;28;1380;-72
2022/02/12 01:42:53;;;;;;;;;;;19.10;56.20;;;;;;5056510;28;1957;-72
2022/02/12 01:45:19;;;;;;;;;;;19.10;56.20;;;;;;5055232;28;1095;-72
2022/02/12 01:47:44;;;;;;;;;;;19.10;56.20;;;;;;5055322;28;1354;-72
2022/02/12 01:50:09;;;;;;;;;;;19.10;56.20;;;;;;5054945;28;1337;-73
2022/02/12 01:52:37;;;;;;;;;;;19.10;56.20;;;;;;5056689;28;1380;-73
2022/02/12 01:55:03;;;;;;;;;;;19.10;56.20;;;;;;5056891;28;1170;-72
2022/02/12 01:57:28;;;;;;;;;;;19.10;56.20;;;;;;5056537;28;1059;-73
2022/02/12 01:59:54;;;;;;;;;;;19.10;56.20;;;;;;5056027;28;1443;-72
2022/02/12 02:02:19;;;;;;;;;;;19.20;56.20;;;;;;5056065;28;1902;-72
2022/02/12 02:04:45;;;;;;;;;;;19.10;56.20;;;;;;5056244;28;1102;-72
2022/02/12 02:07:11;;;;;;;;;;;19.10;56.20;;;;;;5054747;28;1079;-72
2022/02/12 02:09:36;;;;;;;;;;;19.20;56.20;;;;;;5054561;28;1150;-73
2022/02/12 02:12:02;;;;;;;;;;;19.10;56.20;;;;;;5056129;28;1307;-72
2022/02/12 02:14:31;;;;;;;;;;;19.20;56.20;;;;;;5055976;28;1082;-72
2022/02/12 02:16:56;;;;;;;;;;;19.10;56.10;;;;;;5056019;28;1114;-72
2022/02/12 02:19:22;;;;;;;;;;;19.10;56.20;;;;;;5054397;28;1043;-72
2022/02/12 02:21:48;;;;;;;;;;;19.10;56.20;;;;;;5054506;28;1242;-73
2022/02/12 02:24:17;;;;;;;;;;;19.10;56.20;;;;;;5054601;28;1902;-72
2022/02/12 02:26:43;;;;;;;;;;;19.20;56.20;;;;;;5054763;28;1102;-72
2022/02/12 02:29:08;;;;;;;;;;;19.10;56.20;;;;;;5054121;28;1260;-73
2022/02/12 02:31:33;;;;;;;;;;;19.10;56.20;;;;;;5055626;28;1201;-72
2022/02/12 02:33:59;;;;;;;;;;;19.10;56.20;;;;;;5055501;28;1094;-72
2022/02/12 02:36:24;;;;;;;;;;;19.20;56.30;;;;;;5053961;28;1270;-72
2022/02/12 02:38:50;;;;;;;;;;;19.10;56.80;;;;;;5054273;28;1131;-73
2022/02/12 02:41:15;;;;;;;;;;;19.20;56.20;;;;;;5055534;28;1268;-72
2022/02/12 02:43:41;;;;;;;;;;;19.20;56.20;;;;;;5054059;28;2001;-72
2022/02/12 02:46:06;;;;;;;;;;;19.20;56.20;;;;;;5054023;28;1259;-72
2022/02/12 02:48:31;;;;;;;;;;;19.20;56.20;;;;;;5055155;28;1053;-72
2022/02/12 02:56:25;;;;;;;;;;;19.20;56.10;;;;;;5054214;28;1119;-72
2022/02/12 02:58:55;;;;;;;;;;;19.20;56.10;;;;;;5053832;28;1103;-72
2022/02/12 03:01:21;;;;;;;;;;;19.20;56.10;;;;;;5037810;28;1323;-72
2022/02/12 03:03:47;;;;;;;;;;;19.20;56.10;;;;;;5036918;28;1898;-72
2022/02/12 03:06:13;;;;;;;;;;;19.20;56.10;;;;;;5054181;28;1080;-72
2022/02/12 03:08:39;;;;;;;;;;;19.20;56.10;;;;;;5053563;28;1068;-73
2022/02/12 03:11:04;;;;;;;;;;;19.20;56.10;;;;;;5053674;28;1335;-72
2022/02/12 03:13:30;;;;;;;;;;;19.20;56.10;;;;;;5036949;28;1171;-72
2022/02/12 03:15:55;;;;;;;;;;;19.20;56.10;;;;;;5054592;28;1200;-72
2022/02/12 03:18:21;;;;;;;;;;;19.20;56.20;;;;;;5054498;28;1124;-73
2022/02/12 03:20:46;;;;;;;;;;;19.20;56.20;;;;;;5054511;28;1260;-72
2022/02/12 03:23:12;;;;;;;;;;;19.20;56.20;;;;;;5045946;28;1948;-71
2022/02/12 03:25:37;;;;;;;;;;;19.20;56.20;;;;;;5034035;28;1175;-72
2022/02/12 03:28:04;;;;;;;;;;;19.20;56.20;;;;;;5053364;28;1071;-71
2022/02/12 03:30:31;;;;;;;;;;;19.20;56.20;;;;;;5039436;28;1379;-71
2022/02/12 03:32:56;;;;;;;;;;;19.20;56.20;;;;;;5036712;28;1352;-71
2022/02/12 03:35:26;;;;;;;;;;;19.20;56.20;;;;;;5054447;28;1130;-72
2022/02/12 03:37:52;;;;;;;;;;;19.20;56.20;;;;;;5054674;28;1328;-71
2022/02/12 03:40:18;;;;;;;;;;;19.20;56.20;;;;;;5052871;28;1205;-72
2022/02/12 03:42:44;;;;;;;;;;;19.20;56.30;;;;;;5053022;28;1906;-71
2022/02/12 03:45:09;;;;;;;;;;;19.20;56.30;;;;;;5052940;28;1095;-71
2022/02/12 03:47:35;;;;;;;;;;;19.20;56.30;;;;;;5053431;28;1075;-71
2022/02/12 03:50:01;;;;;;;;;;;19.20;56.30;;;;;;5052647;28;1256;-71
2022/02/12 03:52:27;;;;;;;;;;;19.20;56.30;;;;;;5053035;28;1079;-71
2022/02/12 03:54:52;;;;;;;;;;;19.20;56.30;;;;;;5053011;28;1108;-72
2022/02/12 03:57:18;;;;;;;;;;;19.20;56.30;;;;;;5052895;28;1064;-72
2022/02/12 03:59:43;;;;;;;;;;;19.20;56.30;;;;;;5053593;28;1252;-71
2022/02/12 04:02:09;;;;;;;;;;;19.20;56.40;;;;;;5053871;28;1225;-71
2022/02/12 04:04:34;;;;;;;;;;;19.20;56.40;;;;;;5052756;28;1898;-72
2022/02/12 04:07:00;;;;;;;;;;;19.20;56.40;;;;;;5054090;28;1272;-72
2022/02/12 04:09:26;;;;;;;;;;;19.20;56.40;;;;;;5053718;28;1032;-72
2022/02/12 04:11:51;;;;;;;;;;;19.20;56.40;;;;;;5053797;28;1217;-71
2022/02/12 04:14:17;;;;;;;;;;;19.20;56.40;;;;;;5053577;28;1392;-71
2022/02/12 04:16:42;;;;;;;;;;;19.20;56.40;;;;;;5053743;28;1568;-71
2022/02/12 04:19:08;;;;;;;;;;;19.20;56.50;;;;;;5053460;28;1051;-72
2022/02/12 04:21:33;;;;;;;;;;;19.10;56.40;;;;;;5052335;28;1703;-71
2022/02/12 04:23:59;;;;;;;;;;;19.20;56.50;;;;;;5053438;28;1910;-71
2022/02/12 04:26:24;;;;;;;;;;;19.20;56.50;;;;;;5053627;28;1079;-72
2022/02/12 04:28:50;;;;;;;;;;;19.20;56.50;;;;;;5050255;28;1374;-72
2022/02/12 04:31:15;;;;;;;;;;;19.20;56.50;;;;;;5040239;28;1217;-72
2022/02/12 04:33:40;;;;;;;;;;;19.20;56.50;;;;;;5051913;28;1114;-71
2022/02/12 04:36:06;;;;;;;;;;;19.20;56.50;;;;;;5052110;28;1131;-72
2022/02/12 04:38:31;;;;;;;;;;;19.20;56.50;;;;;;5052204;28;1415;-72
2022/02/12 04:40:57;;;;;;;;;;;19.10;56.40;;;;;;5053273;28;1279;-72
2022/02/12 04:43:22;;;;;;;;;;;19.10;56.40;;;;;;5052939;28;1906;-72
2022/02/12 04:45:48;;;;;;;;;;;19.10;56.50;;;;;;5051965;28;1063;-72
2022/02/12 04:48:13;;;;;;;;;;;19.10;56.50;;;;;;5052947;28;1146;-72
2022/02/12 04:50:39;;;;;;;;;;;19.10;56.50;;;;;;5052960;28;1272;-71
2022/02/12 04:53:04;;;;;;;;;;;19.10;56.50;;;;;;5052155;28;1452;-72
2022/02/12 04:55:29;;;;;;;;;;;19.10;56.50;;;;;;5051916;28;1090;-71
2022/02/12 04:57:55;;;;;;;;;;;19.10;56.50;;;;;;5052733;28;1290;-71
2022/02/12 05:00:20;;;;;;;;;;;19.10;56.50;;;;;;5051529;28;1424;-71
2022/02/12 05:02:46;;;;;;;;;;;19.10;56.60;;;;;;5052905;28;1950;-71
2022/02/12 05:05:12;;;;;;;;;;;19.10;56.60;;;;;;5051744;28;1231;-71
2022/02/12 05:07:37;;;;;;;;;;;19.10;56.60;;;;;;5051590;28;1118;-71
2022/02/12 05:10:03;;;;;;;;;;;19.10;56.90;;;;;;5052501;28;1340;-71
2022/02/12 05:12:28;;;;;;;;;;;19.10;57.20;;;;;;5052982;28;1285;-72
2022/02/12 05:14:54;;;;;;;;;;;19.10;56.60;;;;;;5051816;28;1094;-71
2022/02/12 05:17:19;;;;;;;;;;;19.10;56.70;;;;;;5052944;28;1079;-71
2022/02/12 05:19:44;;;;;;;;;;;19.10;56.60;;;;;;5051378;28;1119;-71
2022/02/12 05:22:10;;;;;;;;;;;19.10;56.60;;;;;;5039476;28;1370;-71
2022/02/12 05:24:35;;;;;;;;;;;19.10;56.70;;;;;;5050271;28;1934;-71
2022/02/12 05:27:01;;;;;;;;;;;19.10;56.60;;;;;;5051519;28;1174;-72
2022/02/12 05:29:26;;;;;;;;;;;19.10;56.70;;;;;;5044346;28;1138;-71
2022/02/12 05:31:52;;;;;;;;;;;19.10;56.70;;;;;;5044654;28;1221;-72
2022/02/12 05:34:17;;;;;;;;;;;19.10;56.70;;;;;;5051298;28;1549;-72
2022/02/12 05:36:42;;;;;;;;;;;19.10;56.70;;;;;;5051463;28;1071;-72
2022/02/12 05:39:09;;;;;;;;;;;19.10;56.70;;;;;;5052275;28;1345;-72
2022/02/12 05:41:35;;;;;;;;;;;19.10;56.70;;;;;;5051382;28;1212;-72
2022/02/12 05:44:00;;;;;;;;;;;19.10;56.70;;;;;;5051165;28;1898;-71
2022/02/12 05:46:25;;;;;;;;;;;19.10;56.70;;;;;;5052823;28;1085;-71
2022/02/12 05:48:51;;;;;;;;;;;19.10;56.70;;;;;;5052234;28;1464;-71
2022/02/12 05:51:18;;;;;;;;;;;19.10;56.70;;;;;;5051320;28;1390;-71
2022/02/12 05:53:44;;;;;;;;;;;19.20;56.80;;;;;;5051588;28;1222;-72
2022/02/12 05:56:09;;;;;;;;;;;19.10;56.70;;;;;;5034612;28;1392;-71
2022/02/12 05:58:34;;;;;;;;;;;19.10;56.70;;;;;;5051948;28;1039;-72
2022/02/12 06:01:00;;;;;;;;;;;19.10;56.70;;;;;;5052358;28;1343;-72
2022/02/12 06:03:25;;;;;;;;;;;19.10;56.70;;;;;;5050992;28;1902;-72
2022/02/12 06:05:51;;;;;;;;;;;19.10;56.60;;;;;;5052470;28;1096;-72
2022/02/12 06:08:16;;;;;;;;;;;19.20;56.60;;;;;;5052111;28;1210;-72
2022/02/12 06:10:42;;;;;;;;;;;19.30;56.50;;;;;;5053441;28;1350;-72
2022/02/12 06:13:07;;;;;;;;;;;19.30;56.40;;;;;;5054589;28;1163;-72
2022/02/12 06:15:35;;;;;;;;;;;19.40;56.30;;;;;;5056088;28;1052;-72
2022/02/12 06:18:04;;;;;;;;;;;19.40;56.20;;;;;;5054794;28;1364;-72
2022/02/12 06:20:29;;;;;;;;;;;19.50;56.00;;;;;;5065636;22;3596;-67
2022/02/12 06:22:55;;;;;;;;;;;19.60;55.90;;;;;;5023287;28;1910;-68
2022/02/12 06:25:20;;;;;;;;;;;19.70;55.70;;;;;;5028014;28;1110;-68
2022/02/12 06:27:46;;;;;;;;;;;19.70;55.50;;;;;;5034291;28;1266;-67
2022/02/12 06:30:11;;;;;;;;;;;19.70;55.40;;;;;;5034400;28;1347;-68
2022/02/12 06:32:37;;;;;;;;;;;19.80;55.30;;;;;;5035605;28;1173;-68
2022/02/12 06:35:02;;;;;;;;;;;19.80;55.20;;;;;;5035805;28;1060;-68
2022/02/12 06:37:28;;;;;;;;;;;19.90;55.10;;;;;;5035664;28;1333;-68
2022/02/12 06:39:53;;;;;;;;;;;19.90;55.00;;;;;;5034273;28;1308;-67
2022/02/12 06:42:19;;;;;;;;;;;19.90;55.00;;;;;;5017578;28;1307;-68
2022/02/12 06:44:45;;;;;;;;;;;19.90;54.90;;;;;;5035602;28;2294;-68
2022/02/12 06:47:10;;;;;;;;;;;19.90;54.80;;;;;;5035540;28;1340;-69
2022/02/12 06:49:35;;;;;;;;;;;20.00;54.90;;;;;;5035225;28;1118;-68
2022/02/12 06:52:01;;;;;;;;;;;20.00;54.80;;;;;;5034185;28;1275;-68
2022/02/12 06:54:27;;;;;;;;;;;20.00;54.80;;;;;;5034096;28;1084;-68
2022/02/12 06:56:52;;;;;;;;;;;20.00;54.70;;;;;;5034300;28;1096;-68
2022/02/12 06:59:18;;;;;;;;;;;20.00;54.70;;;;;;5034992;28;1047;-68
2022/02/12 07:01:43;;;;;;;;;;;20.00;54.70;;;;;;5035360;28;1269;-68
2022/02/12 07:04:08;;;;;;;;;;;20.00;54.60;;;;;;5035122;28;1894;-68
2022/02/12 07:06:34;;;;;;;;;;;20.00;53.30;;;;;;5035156;28;1044;-68
2022/02/12 07:08:59;;;;;;;;;;;19.90;51.00;;;;;;5033740;28;1383;-68
2022/02/12 07:11:25;;;;;;;;;;;19.90;50.30;;;;;;5022793;28;1649;-65
2022/02/12 07:13:50;;;;;;;;;;;19.90;50.60;;;;;;5026827;28;2036;-67
2022/02/12 07:16:16;;;;;;;;;;;19.90;50.80;;;;;;5033345;28;1189;-67
2022/02/12 07:18:41;;;;;;;;;;;19.90;50.90;;;;;;5033470;28;1134;-68
2022/02/12 07:21:06;;;;;;;;;;;19.80;51.10;;;;;;5032407;28;1298;-67
2022/02/12 07:23:32;;;;;;;;;;;19.80;51.30;;;;;;5031654;28;1914;-67
2022/02/12 07:25:57;;;;;;;;;;;19.90;51.50;;;;;;5032490;28;1355;-67
2022/02/12 07:28:24;;;;;;;;;;;19.90;51.60;;;;;;5033393;28;1063;-68
2022/02/12 07:30:49;;;;;;;;;;;19.90;51.80;;;;;;5020523;28;1236;-67
2022/02/12 07:33:15;;;;;;;;;;;19.90;51.90;;;;;;5033642;28;1063;-68
2022/02/12 07:35:40;;;;;;;;;;;19.90;52.00;;;;;;5032314;28;1335;-68
2022/02/12 07:38:06;;;;;;;;;;;19.90;52.30;;;;;;5031888;28;1439;-68
2022/02/12 07:40:31;;;;;;;;;;;19.90;52.50;;;;;;5031834;28;1275;-68
2022/02/12 07:42:57;;;;;;;;;;;20.00;52.60;;;;;;5032174;28;1910;-68
2022/02/12 07:45:24;;;;;;;;;;;20.10;52.60;;;;;;5032227;28;1279;-68
2022/02/12 07:47:49;;;;;;;;;;;20.20;52.50;;;;;;5032049;28;1271;-67
2022/02/12 07:50:15;;;;;;;;;;;20.30;52.40;;;;;;5028901;28;1770;-68
2022/02/12 07:52:43;;;;;;;;;;;20.40;52.30;;;;;;5019706;28;1394;-65
2022/02/12 07:55:10;;;;;;;;;;;20.50;52.10;;;;;;5023312;28;1381;-68
2022/02/12 07:57:35;;;;;;;;;;;20.60;52.00;;;;;;5030740;28;1322;-68
2022/02/12 08:00:01;;;;;;;;;;;20.70;51.80;;;;;;5033454;28;1352;-67
2022/02/12 08:02:26;;;;;;;;;;;20.80;51.60;;;;;;5032731;28;1315;-68
2022/02/12 08:04:52;;;;;;;;;;;20.90;51.50;;;;;;5029779;28;2024;-68
2022/02/12 08:07:39;;;;;;;;;;;21.00;51.30;;;;;;5030994;28;1300;-68
2022/02/12 08:12:56;;;;;;;;;;;21.10;51.20;;;;;;5033987;28;1298;-67
2022/02/12 08:15:22;;;;;;;;;;;21.10;51.10;;;;;;5028775;28;1318;-68
2022/02/12 08:17:47;;;;;;;;;;;21.20;51.10;;;;;;5033835;28;1304;-67
2022/02/12 08:20:13;;;;;;;;;;;21.20;51.10;;;;;;5012523;28;1365;-67
2022/02/12 08:22:38;;;;;;;;;;;21.20;51.30;;;;;;5033418;28;1957;-68
2022/02/12 08:25:04;;;;;;;;;;;21.20;51.60;;;;;;5031360;28;1297;-68
2022/02/12 08:27:29;;;;;;;;;;;21.20;51.60;;;;;;5032832;28;1284;-68
2022/02/12 08:29:55;;;;;;;;;;;21.30;51.90;;;;;;5020957;28;1260;-67
2022/02/12 08:32:21;;;;;;;;;;;21.30;52.00;;;;;;5026191;28;1236;-67
2022/02/12 08:34:47;;;;;;;;;;;21.30;52.10;;;;;;5032882;28;1398;-67
2022/02/12 08:37:12;;;;;;;;;;;21.30;52.30;;;;;;5032297;28;1206;-67
2022/02/12 08:39:38;;;;;;;;;;;21.30;52.30;;;;;;5032074;28;1317;-68
2022/02/12 08:42:03;;;;;;;;;;;21.30;52.40;;;;;;5033375;28;1358;-67
2022/02/12 08:44:29;;;;;;;;;;;21.20;52.40;;;;;;5033269;28;1902;-68
2022/02/12 08:46:55;;;;;;;;;;;21.20;52.50;;;;;;5033186;28;1373;-68
2022/02/12 08:49:20;;;;;;;;;;;21.20;52.70;;;;;;5032796;28;1302;-67
2022/02/12 08:51:45;;;;;;;;;;;21.20;52.80;;;;;;5033325;28;1371;-67
2022/02/12 08:54:11;;;;;;;;;;;21.20;52.90;;;;;;5033260;28;1059;-67
2022/02/12 08:56:37;;;;;;;;;;;21.20;53.00;;;;;;5032045;28;1394;-67
2022/02/12 08:59:03;;;;;;;;;;;21.20;53.20;;;;;;5032900;28;1060;-67
2022/02/12 09:01:28;;;;;;;;;;;21.20;53.20;;;;;;5032985;28;1409;-66
2022/02/12 09:03:54;;;;;;;;;;;21.20;53.30;;;;;;5031639;28;1949;-66
2022/02/12 09:06:19;;;;;;;;;;;21.10;53.40;;;;;;5030074;28;1154;-66
2022/02/12 09:08:48;;;;;;;;;;;21.10;53.60;;;;;;5029978;28;1287;-66
2022/02/12 09:11:14;;;;;;;;;;;21.10;54.00;;;;;;5032991;28;1478;-65
2022/02/12 09:13:39;;;;;;;;;;;21.10;54.00;;;;;;5031687;28;1444;-65
2022/02/12 09:16:05;;;;;;;;;;;21.10;54.20;;;;;;5032911;28;1299;-66
2022/02/12 09:18:30;;;;;;;;;;;21.10;54.40;;;;;;5031242;28;1544;-64
2022/02/12 09:20:55;;;;;;;;;;;21.10;54.50;;;;;;5032540;28;1362;-64
2022/02/12 09:23:21;;;;;;;;;;;21.00;54.60;;;;;;5032887;28;1902;-66
2022/02/12 09:25:46;;;;;;;;;;;21.10;54.70;;;;;;5031595;28;1382;-64
2022/02/12 09:28:12;;;;;;;;;;;21.00;54.90;;;;;;5033121;28;1095;-64
2022/02/12 09:30:38;;;;;;;;;;;21.00;55.00;;;;;;5032769;28;1309;-64
2022/02/12 09:33:03;;;;;;;;;;;21.00;55.00;;;;;;5032181;28;1224;-64
2022/02/12 09:35:28;;;;;;;;;;;20.90;55.10;;;;;;5033055;28;1408;-63
2022/02/12 09:37:54;;;;;;;;;;;21.00;55.30;;;;;;5032869;28;1087;-66
2022/02/12 09:40:20;;;;;;;;;;;21.00;55.30;;;;;;5032024;28;1390;-64
2022/02/12 09:42:48;;;;;;;;;;;21.00;55.30;;;;;;5032572;28;1910;-64
2022/02/12 09:45:14;;;;;;;;;;;21.00;55.30;;;;;;5033235;28;1368;-67
2022/02/12 09:47:46;;;;;;;;;;;21.00;55.30;;;;;;5036406;28;1403;-64
2022/02/12 09:50:12;;;;;;;;;;;21.00;55.30;;;;;;5036319;28;1264;-67
2022/02/12 09:52:41;;;;;;;;;;;21.00;55.30;;;;;;5036696;28;1242;-65
2022/02/12 09:55:07;;;;;;;;;;;20.90;55.30;;;;;;5036576;28;1518;-66
2022/02/12 09:57:33;;;;;;;;;;;21.00;55.40;;;;;;5035305;28;1622;-66
2022/02/12 09:59:59;;;;;;;;;;;20.90;55.40;;;;;;5036199;28;1340;-66
2022/02/12 10:02:24;;;;;;;;;;;21.00;55.50;;;;;;5037940;28;1253;-64
2022/02/12 10:05:08;;;;;;;;;;;20.90;55.60;;;;;;5036887;28;1894;-64
2022/02/12 10:07:36;;;;;;;;;;;20.90;55.60;;;;;;5036770;28;1372;-66
2022/02/12 10:10:09;;;;;;;;;;;20.90;55.70;;;;;;5034777;28;1398;-66
2022/02/12 10:12:34;;;;;;;;;;;20.90;55.80;;;;;;5036315;28;1353;-65
2022/02/12 10:15:00;;;;;;;;;;;20.90;55.80;;;;;;5036963;28;1648;-66
2022/02/12 10:17:25;;;;;;;;;;;20.90;55.90;;;;;;5036190;28;1500;-65
2022/02/12 10:19:50;;;;;;;;;;;20.80;55.80;;;;;;5037887;28;1424;-66
2022/02/12 10:22:17;;;;;;;;;;;20.80;55.90;;;;;;5036451;28;1295;-66
2022/02/12 10:24:53;;;;;;;;;;;20.80;55.90;;;;;;5035339;28;1950;-64
2022/02/12 10:27:37;;;;;;;;;;;20.80;56.00;;;;;;5036002;28;1672;-64
2022/02/12 10:30:04;;;;;;;;;;;20.80;56.00;;;;;;5035713;28;1774;-66
2022/02/12 10:32:30;;;;;;;;;;;20.80;56.10;;;;;;5036150;28;1637;-66
2022/02/12 10:34:58;;;;;;;;;;;20.80;56.10;;;;;;5034665;28;1763;-67
2022/02/12 10:37:24;;;;;;;;;;;20.80;56.20;;;;;;5035926;28;1754;-67
2022/02/12 10:39:49;;;;;;;;;;;20.80;56.20;;;;;;5034275;28;1627;-67
2022/02/12 10:42:17;;;;;;;;;;;20.80;56.30;;;;;;5036200;28;1619;-66
2022/02/12 10:44:43;;;;;;;;;;;20.70;56.20;;;;;;5034529;28;1965;-65
2022/02/12 10:47:11;;;;;;;;;;;20.70;56.30;;;;;;5034314;28;1653;-65
2022/02/12 10:49:37;;;;;;;;;;;20.70;56.30;;;;;;5035265;28;1357;-65
2022/02/12 10:52:02;;;;;;;;;;;20.70;56.40;;;;;;5035508;28;1549;-65
2022/02/12 10:54:27;;;;;;;;;;;20.70;56.50;;;;;;5035436;28;1499;-65
2022/02/12 10:56:53;;;;;;;;;;;20.70;56.50;;;;;;5035852;28;1690;-65
2022/02/12 10:59:19;;;;;;;;;;;20.70;56.60;;;;;;5033957;28;1444;-65
2022/02/12 11:01:45;;;;;;;;;;;20.70;56.70;;;;;;5034057;28;1717;-66
2022/02/12 11:04:10;;;;;;;;;;;20.70;56.70;;;;;;5035404;28;1953;-66
2022/02/12 11:06:35;;;;;;;;;;;20.70;56.70;;;;;;5034056;28;1768;-64
2022/02/12 11:09:02;;;;;;;;;;;20.70;56.80;;;;;;5034968;28;1642;-64
2022/02/12 11:11:27;;;;;;;;;;;20.70;56.70;;;;;;5034011;28;1702;-65
2022/02/12 11:13:52;;;;;;;;;;;20.60;56.80;;;;;;5033953;28;1654;-66
2022/02/12 11:16:18;;;;;;;;;;;20.60;56.90;;;;;;5035120;28;1566;-65
2022/02/12 11:18:43;;;;;;;;;;;20.60;56.90;;;;;;5035177;28;1060;-64
2022/02/12 11:21:09;;;;;;;;;;;20.60;56.90;;;;;;5033554;28;1638;-66
2022/02/12 11:23:34;;;;;;;;;;;20.60;57.20;;;;;;5033782;28;1985;-66
2022/02/12 11:26:02;;;;;;;;;;;20.60;57.00;;;;;;5035065;28;1623;-66
2022/02/12 11:28:28;;;;;;;;;;;20.60;57.20;;;;;;5034684;28;1544;-65
2022/02/12 11:31:12;;;;;;;;;;;20.60;57.10;;;;;;5020007;28;1369;-66
2022/02/12 11:33:38;;;;;;;;;;;20.60;57.20;;;;;;5034863;28;1592;-65
2022/02/12 11:36:10;;;;;;;;;;;20.60;57.10;;;;;;5033627;28;1433;-65
2022/02/12 11:38:36;;;;;;;;;;;20.60;57.20;;;;;;5034497;28;1615;-65
2022/02/12 11:41:20;;;;;;;;;;;20.60;57.20;;;;;;5034742;28;1645;-65
2022/02/12 11:43:46;;;;;;;;;;;20.60;57.20;;;;;;5034514;28;1957;-65
2022/02/12 11:46:12;;;;;;;;;;;20.60;57.20;;;;;;5034543;28;1634;-66
2022/02/12 11:48:38;;;;;;;;;;;20.60;57.20;;;;;;5034142;28;1440;-66
2022/02/12 11:51:04;;;;;;;;;;;20.60;57.20;;;;;;5034885;28;1463;-66
2022/02/12 11:53:30;;;;;;;;;;;20.60;57.20;;;;;;5034455;28;1514;-64
2022/02/12 11:55:55;;;;;;;;;;;20.60;57.30;;;;;;5034482;28;1593;-65
2022/02/12 11:58:22;;;;;;;;;;;20.60;57.30;;;;;;5033030;28;1538;-65
2022/02/12 12:00:47;;;;;;;;;;;20.50;57.40;;;;;;5034186;28;1655;-66
2022/02/12 12:03:13;;;;;;;;;;;20.50;57.50;;;;;;5034077;28;1890;-66
2022/02/12 12:05:38;;;;;;;;;;;20.60;57.60;;;;;;5029803;28;2118;-66
2022/02/12 12:08:06;;;;;;;;;;;20.50;57.60;;;;;;5024914;28;1428;-65
2022/02/12 12:10:34;;;;;;;;;;;20.50;57.60;;;;;;5033638;28;1505;-64
2022/02/12 12:12:59;;;;;;;;;;;20.50;57.60;;;;;;5034057;28;1628;-66
2022/02/12 12:15:26;;;;;;;;;;;20.50;57.60;;;;;;5033753;28;1634;-66
2022/02/12 12:18:00;;;;;;;;;;;20.50;57.60;;;;;;5034008;28;1380;-66
2022/02/12 12:20:32;;;;;;;;;;;20.50;57.60;;;;;;5032240;28;1630;-65
2022/02/12 12:23:04;;;;;;;;;;;20.50;57.80;;;;;;5061249;22;2657;-70
2022/02/12 12:25:29;;;;;;;;;;;20.50;57.70;;;;;;5048124;28;1381;-71
2022/02/12 12:27:55;;;;;;;;;;;20.50;57.80;;;;;;5052252;28;1618;-70
2022/02/12 12:33:04;;;;;;;;;;;20.60;57.90;;;;;;5047507;28;1939;-70
2022/02/12 12:35:29;;;;;;;;;;;20.50;57.80;;;;;;5048579;28;1409;-71
2022/02/12 12:37:55;;;;;;;;;;;20.50;57.80;;;;;;5052315;28;1617;-71
2022/02/12 12:40:31;;;;;;;;;;;20.50;57.80;;;;;;5053021;28;1551;-70
2022/02/12 12:42:57;;;;;;;;;;;20.60;57.90;;;;;;5052099;28;1902;-72
2022/02/12 12:45:22;;;;;;;;;;;20.50;57.80;;;;;;5032588;28;1628;-72
2022/02/12 12:47:48;;;;;;;;;;;20.50;57.80;;;;;;5035683;28;1346;-72
2022/02/12 12:50:14;;;;;;;;;;;20.50;57.90;;;;;;5052498;28;1681;-70
2022/02/12 12:52:39;;;;;;;;;;;20.50;57.90;;;;;;5052098;28;1390;-70
2022/02/12 12:55:08;;;;;;;;;;;20.50;58.00;;;;;;5044162;28;1665;-69
2022/02/12 12:57:39;;;;;;;;;;;20.50;58.60;;;;;;5046216;28;1693;-69
2022/02/12 13:00:05;;;;;;;;;;;20.50;58.00;;;;;;5067720;28;1400;-68
2022/02/12 13:02:30;;;;;;;;;;;20.50;58.00;;;;;;5051676;28;1454;-69
2022/02/12 13:04:56;;;;;;;;;;;20.60;57.90;;;;;;5017059;28;1951;-70
2022/02/12 13:07:23;;;;;;;;;;;20.50;56.60;;;;;;5043019;28;1405;-69
2022/02/12 13:09:48;;;;;;;;;;;20.50;53.80;;;;;;5051374;28;1126;-70
2022/02/12 13:12:23;;;;;;;;;;;20.40;52.00;;;;;;5051531;28;1272;-70
2022/02/12 13:14:48;;;;;;;;;;;20.30;49.20;;;;;;5052627;28;1193;-69
2022/02/12 13:17:13;;;;;;;;;;;20.20;47.90;;;;;;5053056;28;1071;-69
2022/02/12 13:19:39;;;;;;;;;;;20.20;48.90;;;;;;5050735;28;1110;-69
2022/02/12 13:22:04;;;;;;;;;;;20.10;49.20;;;;;;5052281;28;1335;-69
2022/02/12 13:24:33;;;;;;;;;;;20.10;49.40;;;;;;5052515;28;1963;-69
2022/02/12 13:26:58;;;;;;;;;;;20.10;49.70;;;;;;5052844;28;1003;-69
2022/02/12 13:29:25;;;;;;;;;;;20.10;50.10;;;;;;5050972;28;1437;-69
2022/02/12 13:31:51;;;;;;;;;;;20.00;50.50;;;;;;5034794;28;1315;-69
2022/02/12 13:34:17;;;;;;;;;;;20.00;51.00;;;;;;5051292;28;1293;-69
2022/02/12 13:36:43;;;;;;;;;;;20.00;51.20;;;;;;5022117;28;1258;-69
2022/02/12 13:39:08;;;;;;;;;;;20.00;51.50;;;;;;5049235;28;1405;-69
2022/02/12 13:41:40;;;;;;;;;;;20.00;51.90;;;;;;5052525;28;1337;-69
2022/02/12 13:44:05;;;;;;;;;;;20.00;52.10;;;;;;5037752;28;1902;-69
2022/02/12 13:46:41;;;;;;;;;;;20.00;52.30;;;;;;5052539;28;1325;-69
2022/02/12 13:49:14;;;;;;;;;;;20.00;52.50;;;;;;5050821;28;1111;-69
2022/02/12 13:51:58;;;;;;;;;;;20.00;52.70;;;;;;5052369;28;1406;-69
2022/02/12 13:54:24;;;;;;;;;;;20.00;52.90;;;;;;5052291;28;1384;-69
2022/02/12 13:56:51;;;;;;;;;;;20.00;53.10;;;;;;5051214;28;1341;-69
2022/02/12 13:59:18;;;;;;;;;;;20.00;53.20;;;;;;5050855;28;1404;-69
2022/02/12 14:01:43;;;;;;;;;;;19.90;53.30;;;;;;5050651;28;1390;-69
2022/02/12 14:04:10;;;;;;;;;;;19.90;53.40;;;;;;5043280;28;1953;-69
2022/02/12 14:06:36;;;;;;;;;;;19.90;53.50;;;;;;5052234;28;1065;-69
2022/02/12 14:09:01;;;;;;;;;;;19.90;53.60;;;;;;5050729;28;1092;-69
2022/02/12 14:11:27;;;;;;;;;;;19.90;53.70;;;;;;5050774;28;1358;-70
2022/02/12 14:13:53;;;;;;;;;;;19.90;53.80;;;;;;5052250;28;1291;-69
2022/02/12 14:16:18;;;;;;;;;;;19.90;53.90;;;;;;5050688;28;1107;-69
2022/02/12 14:18:44;;;;;;;;;;;19.90;53.90;;;;;;5052100;28;1046;-69
2022/02/12 14:21:09;;;;;;;;;;;19.90;54.60;;;;;;5052169;28;1292;-69
2022/02/12 14:23:35;;;;;;;;;;;19.90;54.10;;;;;;5051936;28;1905;-69
2022/02/12 14:26:00;;;;;;;;;;;19.90;54.10;;;;;;5050942;28;1305;-68
2022/02/12 14:28:26;;;;;;;;;;;19.90;54.10;;;;;;5050604;28;1406;-68
2022/02/12 14:30:51;;;;;;;;;;;19.90;54.20;;;;;;5051782;28;1157;-68
2022/02/12 14:33:17;;;;;;;;;;;19.90;54.30;;;;;;5055633;28;1265;-68
2022/02/12 14:35:44;;;;;;;;;;;19.90;54.30;;;;;;5054485;28;1733;-68